createdAt,value
2023-05-24T00:03:07.413Z,8.40
2023-05-24T00:05:41.280Z,8.40
2023-05-24T00:08:09.613Z,8.40
2023-05-24T00:10:37.319Z,8.40
2023-05-24T00:19:07.890Z,8.50
2023-05-24T00:24:25.494Z,8.40
2023-05-24T01:05:13.847Z,8.10
2023-05-24T01:08:11.244Z,8.20
2023-05-24T01:10:53.620Z,8.30
2023-05-24T01:35:16.324Z,8.10
2023-05-24T02:08:54.133Z,8.60
2023-05-24T02:11:23.754Z,8.60
2023-05-24T02:13:51.570Z,8.50
2023-05-24T02:16:24.046Z,8.40
2023-05-24T02:21:54.414Z,8.30
2023-05-24T02:24:35.114Z,8.40
2023-05-24T02:27:12.790Z,8.60
2023-05-24T02:29:44.834Z,8.60
2023-05-24T02:32:13.349Z,8.50
2023-05-24T02:37:30.381Z,8.50
2023-05-24T02:43:49.930Z,8.60
2023-05-24T02:52:57.610Z,8.50
2023-05-24T03:01:12.835Z,8.40
2023-05-24T03:03:47.598Z,8.60
2023-05-24T03:06:15.563Z,8.60
2023-05-24T03:11:37.093Z,8.90
2023-05-24T03:16:46.420Z,9.10
2023-05-24T03:19:14.758Z,9.20
2023-05-24T03:21:41.727Z,9.20
2023-05-24T03:24:10.495Z,9.20
2023-05-24T03:26:40.890Z,9.30
2023-05-24T04:16:16.709Z,8.80
2023-05-24T04:41:27.271Z,9.00
2023-05-24T04:43:56.102Z,9.20
2023-05-24T04:46:30.993Z,9.20
2023-05-24T04:48:59.921Z,9.30
2023-05-24T04:51:29.342Z,9.50
2023-05-24T04:54:08.850Z,9.50
2023-05-24T05:03:07.964Z,10.20
2023-05-24T05:06:00.142Z,10.40
2023-05-24T05:09:02.138Z,10.50
2023-05-24T05:11:30.750Z,10.70
2023-05-24T05:14:00.396Z,10.80
2023-05-24T05:16:30.334Z,11.10
2023-05-24T05:18:57.779Z,11.30
2023-05-24T05:21:24.770Z,11.50
2023-05-24T05:23:51.826Z,11.80
2023-05-24T05:26:18.832Z,12.00
2023-05-24T05:28:46.215Z,12.20
2023-05-24T05:31:15.535Z,12.40
2023-05-24T05:33:42.674Z,12.60
2023-05-24T05:36:19.018Z,12.60
2023-05-24T05:44:18.744Z,12.80
2023-05-24T05:55:02.135Z,13.90
2023-05-24T05:57:35.021Z,14.40
2023-05-24T06:00:31.979Z,14.90
2023-05-24T06:34:04.395Z,20.40
2023-05-24T06:36:41.542Z,20.00
2023-05-24T06:39:13.159Z,19.80
2023-05-24T06:41:48.141Z,20.90
2023-05-24T06:44:16.592Z,21.80
2023-05-24T06:46:45.850Z,22.60
2023-05-24T06:49:15.105Z,21.80
2023-05-24T06:51:43.021Z,21.90
2023-05-24T06:54:10.352Z,21.60
2023-05-24T06:56:37.333Z,22.20
2023-05-24T06:59:04.508Z,22.60
2023-05-24T07:01:31.846Z,23.10
2023-05-24T07:03:59.201Z,23.30
2023-05-24T07:06:27.148Z,22.70
2023-05-24T07:08:54.383Z,22.70
2023-05-24T07:11:21.786Z,21.90
2023-05-24T07:13:49.001Z,21.90
2023-05-24T07:16:16.337Z,22.90
2023-05-24T07:18:43.446Z,24.00
2023-05-24T07:21:10.681Z,24.70
2023-05-24T07:23:38.056Z,24.30
2023-05-24T07:26:05.847Z,25.10
2023-05-24T07:28:33.086Z,25.10
2023-05-24T07:31:00.496Z,24.90
2023-05-24T07:33:27.706Z,25.10
2023-05-24T07:35:54.929Z,25.20
2023-05-24T07:38:22.217Z,24.40
2023-05-24T07:40:49.418Z,24.60
2023-05-24T07:43:16.418Z,24.80
2023-05-24T07:45:43.610Z,23.70
2023-05-24T07:48:11.137Z,23.10
2023-05-24T07:50:38.925Z,23.10
2023-05-24T07:53:06.597Z,23.70
2023-05-24T07:55:34.001Z,24.20
2023-05-24T07:58:01.468Z,24.50
2023-05-24T08:00:28.610Z,24.80
2023-05-24T08:02:55.780Z,24.50
2023-05-24T08:05:23.003Z,25.10
2023-05-24T08:07:50.147Z,24.90
2023-05-24T08:10:17.312Z,25.40
2023-05-24T08:12:45.366Z,24.80
2023-05-24T08:15:12.383Z,25.60
2023-05-24T08:17:39.818Z,26.90
2023-05-24T08:20:09.941Z,26.50
2023-05-24T08:22:37.765Z,25.80
2023-05-24T08:25:06.431Z,25.30
2023-05-24T08:27:33.687Z,25.70
2023-05-24T08:30:00.451Z,25.40
2023-05-24T08:32:28.959Z,25.20
2023-05-24T08:35:14.833Z,26.00
2023-05-24T08:37:48.108Z,26.70
2023-05-24T08:40:15.371Z,27.00
2023-05-24T08:42:43.035Z,27.10
2023-05-24T08:45:13.113Z,27.40
2023-05-24T08:47:40.860Z,26.70
2023-05-24T08:50:08.852Z,27.60
2023-05-24T08:52:36.500Z,27.60
2023-05-24T08:55:07.654Z,26.70
2023-05-24T08:57:39.403Z,26.30
2023-05-24T09:00:09.549Z,25.90
2023-05-24T09:02:44.674Z,24.40
2023-05-24T09:05:14.639Z,24.10
2023-05-24T09:07:43.519Z,24.70
2023-05-24T09:10:11.348Z,25.60
2023-05-24T09:12:39.694Z,25.60
2023-05-24T09:15:08.318Z,24.40
2023-05-24T09:17:37.043Z,25.30
2023-05-24T09:20:07.245Z,26.30
2023-05-24T09:22:38.160Z,26.60
2023-05-24T09:25:08.137Z,27.10
2023-05-24T09:27:38.350Z,26.60
2023-05-24T09:30:10.334Z,25.90
2023-05-24T09:32:37.664Z,26.60
2023-05-24T09:35:09.454Z,26.70
2023-05-24T09:37:39.920Z,27.80
2023-05-24T09:40:10.979Z,27.60
2023-05-24T09:42:38.510Z,27.50
2023-05-24T09:45:09.529Z,27.90
2023-05-24T09:47:38.544Z,27.60
2023-05-24T09:50:11.734Z,26.80
2023-05-24T09:52:38.980Z,26.00
2023-05-24T09:55:18.090Z,26.00
2023-05-24T09:57:55.704Z,26.70
2023-05-24T10:00:25.432Z,27.20
2023-05-24T10:03:00.970Z,28.10
2023-05-24T10:05:28.753Z,28.30
2023-05-24T10:07:57.076Z,27.30
2023-05-24T10:10:31.890Z,27.50
2023-05-24T10:13:00.432Z,27.80
2023-05-24T10:15:28.287Z,28.10
2023-05-24T10:18:11.379Z,27.70
2023-05-24T10:20:42.619Z,26.70
2023-05-24T10:23:18.730Z,27.30
2023-05-24T10:25:51.847Z,27.80
2023-05-24T10:28:21.514Z,27.00
2023-05-24T10:31:05.943Z,27.10
2023-05-24T10:33:37.493Z,27.10
2023-05-24T10:36:13.852Z,25.90
2023-05-24T10:38:41.134Z,25.50
2023-05-24T10:41:08.827Z,24.00
2023-05-24T10:43:36.673Z,23.80
2023-05-24T10:46:05.142Z,24.70
2023-05-24T10:48:32.867Z,23.70
2023-05-24T10:51:02.178Z,24.40
2023-05-24T10:53:29.193Z,24.80
2023-05-24T10:55:58.625Z,25.00
2023-05-24T10:58:46.354Z,25.40
2023-05-24T11:01:28.153Z,25.10
2023-05-24T11:04:18.306Z,25.80
2023-05-24T11:06:50.335Z,25.80
2023-05-24T11:09:17.721Z,25.60
2023-05-24T11:11:46.534Z,25.10
2023-05-24T11:14:14.840Z,24.80
2023-05-24T11:16:46.234Z,24.80
2023-05-24T11:19:22.075Z,24.60
2023-05-24T11:21:50.806Z,25.50
2023-05-24T11:24:19.343Z,25.90
2023-05-24T11:26:47.100Z,25.90
2023-05-24T11:29:17.819Z,26.80
2023-05-24T11:31:57.746Z,27.30
2023-05-24T11:34:27.273Z,27.10
2023-05-24T11:36:55.347Z,26.60
2023-05-24T11:39:23.811Z,26.30
2023-05-24T11:41:51.007Z,25.60
2023-05-24T11:44:21.514Z,24.90
2023-05-24T11:46:48.570Z,26.00
2023-05-24T11:49:18.680Z,26.60
2023-05-24T11:51:46.092Z,26.40
2023-05-24T11:54:13.125Z,24.70
2023-05-24T11:56:40.185Z,24.90
2023-05-24T11:59:18.133Z,23.80
2023-05-24T12:01:45.098Z,24.40
2023-05-24T12:04:12.933Z,24.20
2023-05-24T12:06:42.974Z,23.80
2023-05-24T12:09:13.277Z,23.90
2023-05-24T12:11:42.132Z,23.80
2023-05-24T12:14:27.599Z,23.60
2023-05-24T12:16:56.396Z,23.30
2023-05-24T12:19:34.095Z,23.10
2023-05-24T12:22:05.200Z,23.70
2023-05-24T12:24:32.878Z,24.50
2023-05-24T12:27:07.595Z,24.30
2023-05-24T12:29:36.511Z,24.00
2023-05-24T12:32:04.126Z,23.90
2023-05-24T12:34:31.068Z,23.70
2023-05-24T12:36:58.436Z,23.00
2023-05-24T12:39:32.080Z,22.20
2023-05-24T12:42:01.887Z,22.50
2023-05-24T12:44:36.760Z,23.20
2023-05-24T12:47:06.778Z,23.90
2023-05-24T12:49:34.006Z,23.40
2023-05-24T12:52:04.363Z,23.00
2023-05-24T12:54:31.609Z,22.50
2023-05-24T12:57:05.247Z,22.20
2023-05-24T12:59:32.921Z,21.90
2023-05-24T13:02:00.440Z,22.00
2023-05-24T13:04:28.068Z,21.10
2023-05-24T13:06:55.850Z,20.90
2023-05-24T13:09:23.707Z,20.90
2023-05-24T13:11:52.265Z,20.20
2023-05-24T13:14:20.012Z,20.10
2023-05-24T13:16:48.066Z,20.20
2023-05-24T13:19:15.111Z,20.60
2023-05-24T13:21:42.812Z,20.80
2023-05-24T13:24:10.006Z,20.50
2023-05-24T13:26:38.111Z,20.00
2023-05-24T13:31:41.120Z,19.70
2023-05-24T13:34:09.245Z,19.40
2023-05-24T13:36:38.090Z,19.00
2023-05-24T13:39:15.625Z,19.50
2023-05-24T13:41:44.351Z,20.00
2023-05-24T13:44:15.769Z,19.50
2023-05-24T13:46:43.761Z,19.40
2023-05-24T13:49:12.053Z,19.30
2023-05-24T13:51:39.595Z,18.90
2023-05-24T13:54:07.180Z,19.00
2023-05-24T13:56:35.030Z,19.20
2023-05-24T13:59:03.439Z,19.50
2023-05-24T14:01:31.205Z,19.30
2023-05-24T14:03:58.427Z,19.50
2023-05-24T14:06:25.457Z,19.80
2023-05-24T14:08:52.654Z,19.90
2023-05-24T14:11:19.811Z,20.00
2023-05-24T14:16:18.475Z,20.30
2023-05-24T14:18:46.020Z,20.50
2023-05-24T14:21:13.011Z,20.40
2023-05-24T14:23:40.024Z,19.80
2023-05-24T14:26:06.898Z,20.00
2023-05-24T14:28:33.743Z,20.00
2023-05-24T14:31:00.894Z,20.00
2023-05-24T14:33:27.878Z,20.10
2023-05-24T14:35:54.981Z,19.80
2023-05-24T14:38:23.922Z,20.00
2023-05-24T14:40:51.362Z,20.40
2023-05-24T14:44:07.289Z,20.60
2023-05-24T14:47:29.698Z,20.60
2023-05-24T14:49:56.740Z,20.30
2023-05-24T14:52:23.667Z,20.40
2023-05-24T14:54:50.661Z,20.50
2023-05-24T14:57:17.528Z,20.30
2023-05-24T14:59:44.409Z,20.00
2023-05-24T15:02:11.701Z,19.90
2023-05-24T15:04:38.766Z,19.80
2023-05-24T15:07:05.784Z,19.50
2023-05-24T15:09:32.829Z,19.50
2023-05-24T15:11:59.667Z,19.80
2023-05-24T15:14:26.660Z,19.80
2023-05-24T15:16:53.916Z,19.90
2023-05-24T15:19:21.248Z,19.60
2023-05-24T15:21:48.183Z,19.50
2023-05-24T15:24:15.329Z,19.00
2023-05-24T15:26:42.259Z,18.60
2023-05-24T15:29:09.739Z,18.80
2023-05-24T15:31:36.795Z,18.70
2023-05-24T15:34:05.049Z,18.80
2023-05-24T15:36:32.628Z,19.30
2023-05-24T15:39:02.281Z,19.70
2023-05-24T15:41:29.283Z,19.60
2023-05-24T15:43:56.283Z,19.20
2023-05-24T15:46:23.412Z,19.00
2023-05-24T15:48:50.361Z,19.30
2023-05-24T15:53:49.816Z,19.60
2023-05-24T15:56:16.924Z,19.70
2023-05-24T15:58:44.070Z,20.10
2023-05-24T16:01:11.090Z,20.00
2023-05-24T16:03:38.458Z,20.10
2023-05-24T16:06:06.588Z,19.70
2023-05-24T16:08:33.553Z,19.30
2023-05-24T16:11:00.604Z,19.10
2023-05-24T16:13:27.700Z,19.00
2023-05-24T16:15:54.783Z,19.00
2023-05-24T16:18:27.038Z,19.00
2023-05-24T16:20:53.920Z,18.80
2023-05-24T16:23:23.267Z,19.00
2023-05-24T16:25:50.447Z,19.00
2023-05-24T16:28:17.764Z,19.10
2023-05-24T16:30:45.147Z,19.00
2023-05-24T16:33:12.248Z,19.30
2023-05-24T16:35:39.290Z,19.30
2023-05-24T16:38:06.198Z,19.00
2023-05-24T16:40:39.802Z,18.90
2023-05-24T16:43:06.790Z,19.00
2023-05-24T16:45:33.716Z,19.10
2023-05-24T16:48:01.217Z,19.20
2023-05-24T16:50:28.093Z,19.00
2023-05-24T16:52:58.222Z,18.70
2023-05-24T16:55:25.221Z,18.70
2023-05-24T16:57:52.165Z,18.50
2023-05-24T17:00:19.710Z,18.10
2023-05-24T17:02:46.612Z,17.90
2023-05-24T17:05:13.668Z,17.70
2023-05-24T17:07:40.818Z,17.70
2023-05-24T17:10:08.203Z,17.60
2023-05-24T17:12:35.251Z,17.70
2023-05-24T17:15:02.198Z,17.70
2023-05-24T17:17:29.068Z,17.60
2023-05-24T17:19:56.429Z,17.70
2023-05-24T17:22:23.344Z,17.80
2023-05-24T17:24:50.324Z,17.70
2023-05-24T17:27:22.185Z,17.80
2023-05-24T17:29:49.530Z,17.90
2023-05-24T17:32:16.361Z,17.90
2023-05-24T17:34:43.686Z,18.10
2023-05-24T17:37:10.591Z,18.00
2023-05-24T17:39:38.791Z,18.00
2023-05-24T17:42:06.907Z,17.80
2023-05-24T17:44:33.925Z,17.60
2023-05-24T17:47:02.071Z,17.50
2023-05-24T17:49:32.442Z,17.20
2023-05-24T17:52:01.424Z,17.20
2023-05-24T17:54:28.476Z,17.10
2023-05-24T17:56:55.406Z,17.00
2023-05-24T17:59:32.522Z,16.90
2023-05-24T18:01:59.524Z,16.80
2023-05-24T18:04:38.333Z,16.70
2023-05-24T18:07:15.090Z,16.70
2023-05-24T18:09:41.919Z,16.70
2023-05-24T18:12:08.933Z,16.70
2023-05-24T18:14:35.885Z,16.70
2023-05-24T18:17:03.043Z,16.70
2023-05-24T18:19:30.171Z,16.70
2023-05-24T18:21:58.079Z,16.70
2023-05-24T18:24:24.956Z,16.70
2023-05-24T18:26:51.900Z,16.60
2023-05-24T18:29:18.727Z,16.70
2023-05-24T18:31:46.397Z,16.70
2023-05-24T18:34:13.739Z,16.60
2023-05-24T18:36:40.828Z,16.50
2023-05-24T18:39:07.781Z,16.50
2023-05-24T18:41:34.601Z,16.40
2023-05-24T18:44:01.647Z,16.30
2023-05-24T18:46:29.624Z,16.40
2023-05-24T18:48:58.654Z,16.30
2023-05-24T18:51:25.886Z,16.30
2023-05-24T18:53:52.811Z,16.30
2023-05-24T18:56:19.730Z,16.30
2023-05-24T18:58:49.703Z,16.20
2023-05-24T19:01:17.546Z,16.10
2023-05-24T19:03:44.698Z,16.10
2023-05-24T19:06:12.880Z,16.00
2023-05-24T19:08:40.112Z,16.00
2023-05-24T19:11:07.066Z,15.90
2023-05-24T19:13:34.151Z,15.80
2023-05-24T19:16:01.566Z,15.70
2023-05-24T19:18:28.575Z,15.60
2023-05-24T19:20:55.844Z,15.50
2023-05-24T19:23:22.808Z,15.50
2023-05-24T19:25:50.533Z,15.50
2023-05-24T19:28:20.262Z,15.50
2023-05-24T19:30:47.237Z,15.40
2023-05-24T19:33:14.379Z,15.30
2023-05-24T19:35:41.379Z,15.10
2023-05-24T19:38:08.386Z,15.00
2023-05-24T19:40:35.385Z,14.80
2023-05-24T19:43:02.603Z,14.70
2023-05-24T19:45:29.606Z,14.70
2023-05-24T19:47:59.084Z,14.60
2023-05-24T19:50:29.001Z,14.60
2023-05-24T19:52:57.577Z,14.50
2023-05-24T19:55:26.791Z,14.40
2023-05-24T19:57:53.828Z,14.30
2023-05-24T20:00:21.320Z,14.30
2023-05-24T20:02:48.405Z,14.40
2023-05-24T20:05:17.544Z,14.40
2023-05-24T20:07:44.481Z,14.30
2023-05-24T20:10:12.029Z,14.20
2023-05-24T20:12:39.101Z,14.00
2023-05-24T20:15:08.187Z,14.00
2023-05-24T20:17:35.183Z,13.90
2023-05-24T20:20:03.973Z,13.80
2023-05-24T20:22:31.280Z,13.70
2023-05-24T20:24:58.230Z,13.60
2023-05-24T20:27:25.123Z,13.50
2023-05-24T20:29:52.127Z,13.50
2023-05-24T20:32:19.242Z,13.40
2023-05-24T20:34:46.249Z,13.30
2023-05-24T20:37:13.207Z,13.30
2023-05-24T20:39:40.115Z,13.20
2023-05-24T20:42:08.194Z,13.20
2023-05-24T20:44:35.144Z,13.00
2023-05-24T20:47:02.149Z,13.00
2023-05-24T20:49:29.869Z,13.10
2023-05-24T20:51:56.716Z,13.10
2023-05-24T20:54:23.789Z,13.10
2023-05-24T20:56:51.163Z,13.00
2023-05-24T20:59:18.066Z,13.00
2023-05-24T21:02:06.109Z,13.00
2023-05-24T21:04:39.197Z,13.00
2023-05-24T21:07:07.874Z,12.80
2023-05-24T21:09:34.882Z,12.70
2023-05-24T21:12:02.355Z,12.70
2023-05-24T21:14:30.694Z,12.80
2023-05-24T21:16:57.620Z,12.60
2023-05-24T21:19:24.579Z,12.70
2023-05-24T21:21:51.535Z,12.60
2023-05-24T21:24:19.032Z,12.60
2023-05-24T21:26:45.994Z,12.50
2023-05-24T21:29:13.266Z,12.50
2023-05-24T21:31:41.152Z,12.60
2023-05-24T21:34:08.208Z,12.70
2023-05-24T21:36:35.206Z,12.70
2023-05-24T21:39:07.510Z,12.80
2023-05-24T21:41:35.234Z,12.70
2023-05-24T21:44:02.174Z,12.80
2023-05-24T21:46:29.386Z,12.70
2023-05-24T21:48:57.394Z,12.70
2023-05-24T21:51:24.374Z,12.60
2023-05-24T21:53:52.478Z,12.60
2023-05-24T21:56:19.705Z,12.60
2023-05-24T21:58:46.646Z,12.60
2023-05-24T22:01:13.636Z,12.50
2023-05-24T22:03:40.859Z,12.40
2023-05-24T22:06:08.607Z,12.40
2023-05-24T22:08:35.573Z,12.40
2023-05-24T22:11:02.474Z,12.40
2023-05-24T22:13:29.397Z,12.30
2023-05-24T22:15:57.001Z,12.20
2023-05-24T22:18:28.337Z,12.20
2023-05-24T22:20:58.379Z,12.10
2023-05-24T22:23:28.405Z,12.10
2023-05-24T22:25:55.804Z,12.00
2023-05-24T22:28:24.694Z,12.00
2023-05-24T22:30:52.440Z,12.00
2023-05-24T22:33:20.088Z,12.00
2023-05-24T22:35:47.348Z,12.00
2023-05-24T22:38:14.288Z,12.00
2023-05-24T22:40:42.353Z,12.00
2023-05-24T22:43:09.703Z,11.90
2023-05-24T22:45:37.041Z,12.00
2023-05-24T22:48:04.052Z,12.00
2023-05-24T22:50:30.923Z,11.90
2023-05-24T22:52:58.772Z,11.90
2023-05-24T22:55:26.250Z,11.90
2023-05-24T22:57:53.503Z,11.90
2023-05-24T23:00:20.777Z,11.80
2023-05-24T23:02:47.854Z,11.60
2023-05-24T23:05:17.996Z,11.50
2023-05-24T23:07:49.395Z,11.50
2023-05-24T23:10:18.666Z,11.40
2023-05-24T23:12:46.145Z,11.30
2023-05-24T23:15:16.831Z,11.30
2023-05-24T23:17:44.184Z,11.20
2023-05-24T23:20:14.433Z,11.10
2023-05-24T23:22:41.402Z,11.10
2023-05-24T23:25:09.107Z,11.00
2023-05-24T23:27:36.004Z,11.00
2023-05-24T23:30:02.969Z,10.90
2023-05-24T23:32:29.907Z,10.80
2023-05-24T23:34:57.020Z,10.80
2023-05-24T23:37:23.951Z,10.80
2023-05-24T23:39:50.876Z,10.80
2023-05-24T23:42:17.741Z,10.80
2023-05-24T23:44:45.315Z,10.80
2023-05-24T23:47:12.311Z,10.80
2023-05-24T23:49:39.394Z,10.80
2023-05-24T23:52:06.862Z,10.80
2023-05-24T23:54:34.082Z,10.80
2023-05-24T23:57:01.314Z,10.80
2023-05-24T23:59:28.262Z,10.70
